Time;durP1;ratioP1;P1;durP2;ratioP2;P2;SDS_P1;SDS_P2;PMS_P1;PMS_P2;Temp;Humidity;BMP_temperature;BMP_pressure;BME280_temperature;BME280_humidity;BME280_pressure;Samples;Min_cycle;Max_cycle;Signal;HPM_P1;HPM_P2
2023/10/13 00:00:36;;;;;;;3.90;2.33;;;14.30;99.90;;;;;;4986180;28;20742;-75
2023/10/13 00:03:03;;;;;;;5.50;2.35;;;14.30;99.90;;;;;;4986008;28;20174;-75
2023/10/13 00:05:30;;;;;;;3.38;1.90;;;14.40;99.90;;;;;;4981802;28;20210;-74
2023/10/13 00:08:03;;;;;;;4.43;2.03;;;14.40;99.90;;;;;;4979844;28;20213;-75
2023/10/13 00:10:33;;;;;;;4.75;1.95;;;14.30;99.90;;;;;;4987329;28;20218;-76
2023/10/13 00:13:11;;;;;;;6.70;1.95;;;14.40;99.90;;;;;;4978646;28;20203;-75
2023/10/13 00:18:41;;;;;;;3.28;1.98;;;14.30;99.90;;;;;;4983083;28;20208;-75
2023/10/13 00:21:13;;;;;;;1.90;1.67;;;14.30;99.90;;;;;;4983768;28;20703;-75
2023/10/13 00:23:53;;;;;;;3.33;2.05;;;14.20;99.90;;;;;;4989221;28;20178;-74
2023/10/13 00:26:28;;;;;;;4.70;2.47;;;14.30;99.90;;;;;;4983299;28;20699;-75
2023/10/13 00:31:38;;;;;;;4.10;2.17;;;14.30;99.90;;;;;;4984482;28;20202;-75
2023/10/13 00:34:20;;;;;;;5.32;2.40;;;14.30;99.90;;;;;;4982890;28;20213;-73
2023/10/13 00:37:10;;;;;;;5.18;3.25;;;14.30;99.90;;;;;;4985865;28;20272;-74
2023/10/13 00:39:36;;;;;;;5.82;3.00;;;14.30;99.90;;;;;;4983657;28;20591;-75
2023/10/13 00:42:07;;;;;;;11.60;3.70;;;14.20;99.90;;;;;;4983292;28;20655;-75
2023/10/13 00:44:43;;;;;;;5.20;3.22;;;14.20;99.90;;;;;;4983445;28;20197;-74
2023/10/13 00:47:17;;;;;;;6.10;3.13;;;14.10;99.90;;;;;;4984906;28;20271;-77
2023/10/13 00:49:47;;;;;;;5.05;3.15;;;14.10;99.90;;;;;;4987276;28;20641;-74
2023/10/13 00:52:15;;;;;;;6.18;3.08;;;14.20;99.90;;;;;;4981226;28;20214;-71
2023/10/13 00:54:45;;;;;;;6.40;3.40;;;14.20;99.90;;;;;;4987261;28;20198;-74
2023/10/13 00:57:34;;;;;;;4.82;2.90;;;14.30;99.90;;;;;;4982682;28;20178;-75
2023/10/13 01:00:18;;;;;;;5.45;3.17;;;14.20;99.90;;;;;;4981885;28;20577;-74
2023/10/13 01:02:45;;;;;;;6.45;2.78;;;14.20;99.90;;;;;;4990938;28;20256;-74
2023/10/13 01:05:19;;;;;;;6.55;2.72;;;14.30;99.90;;;;;;4983353;28;20213;-74
2023/10/13 01:07:50;;;;;;;3.33;2.10;;;14.30;99.90;;;;;;4983582;28;20271;-74
2023/10/13 01:10:16;;;;;;;3.22;2.13;;;14.30;99.90;;;;;;4985968;28;20217;-75
2023/10/13 01:12:45;;;;;;;4.72;2.28;;;14.40;99.90;;;;;;4982121;28;20202;-74
2023/10/13 01:15:16;;;;;;;5.40;2.30;;;14.30;99.90;;;;;;4978768;28;20179;-75
2023/10/13 01:17:44;;;;;;;7.22;2.97;;;14.20;99.90;;;;;;4988658;28;20247;-74
2023/10/13 01:20:12;;;;;;;4.25;2.38;;;14.30;99.90;;;;;;4984909;28;20214;-75
2023/10/13 01:22:38;;;;;;;3.40;1.95;;;14.30;99.90;;;;;;4990833;28;20208;-75
2023/10/13 01:25:13;;;;;;;3.40;2.25;;;14.20;99.90;;;;;;4980012;28;20214;-75
2023/10/13 01:27:40;;;;;;;9.23;2.97;;;14.30;99.90;;;;;;4983777;28;20252;-76
2023/10/13 01:30:10;;;;;;;5.75;3.05;;;14.30;99.90;;;;;;4989421;28;20224;-75
2023/10/13 01:32:40;;;;;;;4.07;2.65;;;14.20;99.90;;;;;;4981821;28;20260;-73
2023/10/13 01:35:07;;;;;;;6.45;3.03;;;14.30;99.90;;;;;;4982382;28;20206;-74
2023/10/13 01:37:33;;;;;;;5.85;2.45;;;14.30;99.90;;;;;;4989375;28;20201;-74
2023/10/13 01:39:58;;;;;;;4.57;2.80;;;14.30;99.90;;;;;;4981699;28;20309;-74
2023/10/13 01:42:24;;;;;;;6.28;2.65;;;14.20;99.90;;;;;;4997444;28;20273;-75
2023/10/13 01:44:51;;;;;;;3.92;2.70;;;14.20;99.90;;;;;;4976385;28;20545;-74
2023/10/13 01:47:16;;;;;;;5.85;3.47;;;14.30;99.90;;;;;;4981847;28;20264;-74
2023/10/13 01:49:46;;;;;;;4.88;3.25;;;14.20;99.90;;;;;;4986567;28;20649;-75
2023/10/13 01:52:15;;;;;;;4.05;2.75;;;14.20;99.90;;;;;;4977778;28;20202;-75
2023/10/13 01:54:44;;;;;;;6.10;3.00;;;14.20;99.90;;;;;;4982830;28;20742;-75
2023/10/13 01:57:17;;;;;;;5.68;3.22;;;14.30;99.90;;;;;;4979557;28;20703;-75
2023/10/13 01:59:47;;;;;;;4.78;3.10;;;14.20;99.90;;;;;;4990435;28;20211;-75
2023/10/13 02:02:14;;;;;;;4.38;3.20;;;14.20;99.90;;;;;;4981796;28;20289;-74
2023/10/13 02:04:55;;;;;;;5.88;3.35;;;14.20;99.90;;;;;;4983103;28;20218;-75
2023/10/13 02:07:20;;;;;;;9.15;3.65;;;14.20;99.90;;;;;;4989618;28;20218;-75
2023/10/13 02:09:47;;;;;;;6.22;3.55;;;14.20;99.90;;;;;;4987495;28;20615;-74
2023/10/13 02:12:14;;;;;;;6.30;3.70;;;14.20;99.90;;;;;;4988865;28;20698;-74
2023/10/13 02:14:42;;;;;;;6.80;4.05;;;14.20;99.90;;;;;;4987210;28;20570;-73
2023/10/13 02:17:14;;;;;;;9.20;4.35;;;14.20;99.90;;;;;;4985363;28;20205;-75
2023/10/13 02:19:44;;;;;;;8.23;4.47;;;14.10;99.90;;;;;;4988809;28;20220;-74
2023/10/13 02:22:11;;;;;;;6.57;4.03;;;14.10;99.90;;;;;;4989154;28;20202;-75
2023/10/13 02:24:39;;;;;;;7.57;4.82;;;14.10;99.90;;;;;;4984061;28;20212;-75
2023/10/13 02:27:13;;;;;;;10.23;3.92;;;14.10;99.90;;;;;;4982876;28;20190;-75
2023/10/13 02:29:45;;;;;;;8.25;4.18;;;14.10;99.90;;;;;;4964484;28;20218;-74
2023/10/13 02:32:30;;;;;;;7.95;4.43;;;14.10;99.90;;;;;;4960867;28;20214;-75
2023/10/13 02:35:05;;;;;;;8.63;4.38;;;14.10;99.90;;;;;;4963718;28;20195;-74
2023/10/13 02:37:31;;;;;;;9.45;4.57;;;14.00;99.90;;;;;;4964120;28;20218;-75
2023/10/13 02:39:57;;;;;;;8.80;4.75;;;14.10;99.90;;;;;;4963983;28;20625;-75
2023/10/13 02:42:23;;;;;;;7.63;4.45;;;14.10;99.90;;;;;;4966087;28;20193;-73
2023/10/13 02:44:55;;;;;;;8.15;4.60;;;14.10;99.90;;;;;;4967382;28;20268;-74
2023/10/13 02:47:23;;;;;;;8.55;4.72;;;14.10;99.90;;;;;;4969175;28;20217;-75
2023/10/13 02:49:49;;;;;;;7.25;4.18;;;14.00;99.90;;;;;;4968438;28;20217;-75
2023/10/13 02:52:15;;;;;;;13.60;5.28;;;14.10;99.90;;;;;;4962005;28;20210;-75
2023/10/13 02:54:47;;;;;;;9.80;4.72;;;14.10;99.90;;;;;;4968905;28;20341;-76
2023/10/13 02:57:15;;;;;;;10.35;4.63;;;14.20;99.90;;;;;;4972439;28;20178;-75
2023/10/13 02:59:46;;;;;;;8.90;4.72;;;14.20;99.90;;;;;;4968899;28;20285;-75
2023/10/13 03:02:29;;;;;;;11.55;5.47;;;14.20;99.90;;;;;;4967223;28;20202;-75
2023/10/13 03:05:08;;;;;;;8.85;5.25;;;14.20;99.90;;;;;;4978434;28;20277;-73
2023/10/13 03:07:36;;;;;;;9.65;5.93;;;14.20;99.90;;;;;;4965973;28;20716;-76
2023/10/13 03:10:09;;;;;;;9.10;5.28;;;14.10;99.90;;;;;;4974656;28;20209;-76
2023/10/13 03:12:36;;;;;;;10.70;6.03;;;14.20;99.90;;;;;;4976045;28;20213;-74
2023/10/13 03:15:19;;;;;;;10.30;4.68;;;14.20;99.90;;;;;;4972540;28;20194;-76
2023/10/13 03:17:45;;;;;;;9.77;5.40;;;14.20;99.90;;;;;;4969748;28;20747;-75
2023/10/13 03:20:20;;;;;;;11.20;5.63;;;14.20;99.90;;;;;;4975870;28;20214;-75
2023/10/13 03:22:45;;;;;;;11.57;5.57;;;14.20;99.90;;;;;;4965445;28;20695;-75
2023/10/13 03:25:42;;;;;;;9.50;4.90;;;14.20;99.90;;;;;;4967034;28;20214;-75
2023/10/13 03:28:11;;;;;;;8.35;5.50;;;14.20;99.90;;;;;;4965914;28;20253;-74
2023/10/13 03:30:41;;;;;;;11.80;5.93;;;14.20;99.90;;;;;;4963111;28;20214;-76
2023/10/13 03:33:09;;;;;;;12.25;5.50;;;14.20;99.90;;;;;;4970262;28;20182;-75
2023/10/13 03:35:41;;;;;;;13.70;5.32;;;14.20;99.90;;;;;;4973805;28;20261;-75
2023/10/13 03:38:16;;;;;;;16.20;6.72;;;14.30;99.90;;;;;;4972525;28;20217;-76
2023/10/13 03:43:44;;;;;;;12.50;6.15;;;14.30;99.90;;;;;;4971431;28;20238;-75
2023/10/13 03:46:10;;;;;;;10.27;6.35;;;14.20;99.90;;;;;;4971236;28;20228;-75
2023/10/13 03:48:51;;;;;;;12.45;5.75;;;14.20;99.90;;;;;;4968385;28;20688;-75
2023/10/13 03:51:17;;;;;;;12.80;6.35;;;14.20;99.90;;;;;;4972077;28;20304;-75
2023/10/13 03:53:56;;;;;;;11.50;6.05;;;14.30;99.90;;;;;;4975224;28;20266;-75
2023/10/13 03:56:26;;;;;;;13.68;6.95;;;14.30;99.90;;;;;;4974099;28;20429;-76
2023/10/13 04:04:11;;;;;;;11.18;6.13;;;14.30;99.90;;;;;;5001503;28;20280;-76
2023/10/13 04:07:13;;;;;;;13.23;5.60;;;14.30;99.90;;;;;;5003228;28;20233;-76
2023/10/13 04:17:22;;;;;;;9.65;6.22;;;14.30;99.90;;;;;;4972264;28;20209;-75
2023/10/13 04:41:57;;;;;;;14.48;8.43;;;14.40;99.90;;;;;;4972277;28;20205;-77
2023/10/13 05:49:20;;;;;;;13.07;7.75;;;14.70;99.90;;;;;;4971061;28;20568;-75
2023/10/13 06:29:35;;;;;;;8.35;4.85;;;18.30;99.90;;;;;;4972815;28;20350;-75
2023/10/13 06:32:01;;;;;;;7.28;4.10;;;18.60;99.90;;;;;;4970861;28;20222;-75
2023/10/13 06:34:45;;;;;;;10.18;5.18;;;18.20;99.90;;;;;;4969825;28;20708;-75
2023/10/13 06:37:22;;;;;;;7.82;4.43;;;17.90;99.90;;;;;;4967160;28;20210;-76
2023/10/13 06:39:56;;;;;;;11.40;4.90;;;17.60;99.90;;;;;;4972350;28;20209;-76
2023/10/13 06:42:28;;;;;;;8.95;5.38;;;17.00;99.90;;;;;;4975041;28;20201;-76
2023/10/13 06:44:54;;;;;;;7.38;4.60;;;17.30;99.90;;;;;;4977061;28;20758;-74
2023/10/13 06:47:21;;;;;;;7.18;4.63;;;17.80;99.90;;;;;;4975077;28;20210;-76
2023/10/13 06:49:51;;;;;;;8.75;4.55;;;18.60;99.90;;;;;;4981012;28;20634;-75
2023/10/13 06:52:17;;;;;;;7.50;4.57;;;19.50;99.90;;;;;;4965531;28;20227;-76
2023/10/13 06:54:43;;;;;;;7.00;4.88;;;19.70;99.90;;;;;;4977428;28;20301;-76
2023/10/13 06:57:20;;;;;;;5.65;4.22;;;20.50;99.90;;;;;;4971106;28;20178;-76
2023/10/13 06:59:49;;;;;;;10.02;4.50;;;20.90;99.90;;;;;;4971832;28;20170;-76
2023/10/13 07:02:21;;;;;;;7.00;3.92;;;21.70;99.90;;;;;;4972256;28;20255;-77
2023/10/13 07:05:07;;;;;;;6.65;4.15;;;22.00;99.90;;;;;;4972654;28;20210;-75
2023/10/13 07:07:33;;;;;;;5.80;4.28;;;21.30;99.90;;;;;;4969282;28;20210;-76
2023/10/13 07:09:58;;;;;;;10.05;4.40;;;20.60;99.90;;;;;;4972280;28;20214;-76
2023/10/13 07:12:27;;;;;;;10.75;4.03;;;20.40;99.90;;;;;;4972121;28;20299;-76
2023/10/13 07:15:44;;;;;;;4.43;3.78;;;20.30;99.90;;;;;;4972691;28;20170;-76
2023/10/13 07:17:40;;;;;;;5.70;4.10;;;19.60;99.90;;;;;;4971500;28;20214;-76
2023/10/13 07:20:23;;;;;;;5.20;3.33;;;19.40;99.90;;;;;;4972302;28;20221;-76
2023/10/13 07:22:57;;;;;;;7.97;3.90;;;19.20;99.90;;;;;;4962747;28;20214;-74
2023/10/13 07:25:26;;;;;;;4.93;3.70;;;18.50;99.90;;;;;;4976713;28;20206;-76
2023/10/13 07:27:54;;;;;;;6.10;3.90;;;18.40;99.90;;;;;;4975004;28;20643;-76
2023/10/13 07:30:26;;;;;;;7.28;3.70;;;18.20;99.90;;;;;;4970083;28;20170;-76
2023/10/13 07:32:51;;;;;;;5.07;3.20;;;18.00;99.90;;;;;;4963582;28;20707;-75
2023/10/13 07:35:26;;;;;;;6.97;3.97;;;18.00;99.90;;;;;;4966474;28;20237;-76
2023/10/13 07:37:53;;;;;;;5.97;4.32;;;17.90;99.90;;;;;;4973718;28;20684;-76
2023/10/13 07:43:00;;;;;;;6.05;3.58;;;17.90;99.90;;;;;;4975493;28;20214;-74
2023/10/13 07:45:35;;;;;;;6.57;3.33;;;17.90;99.90;;;;;;4970181;28;20213;-76
2023/10/13 07:48:07;;;;;;;5.85;4.03;;;17.90;99.90;;;;;;4974249;28;20284;-75
2023/10/13 07:50:34;;;;;;;6.35;3.47;;;17.90;99.90;;;;;;4973129;28;20195;-73
2023/10/13 07:53:04;;;;;;;6.18;4.03;;;18.00;99.90;;;;;;4969925;28;20206;-75
2023/10/13 07:55:33;;;;;;;6.78;3.20;;;17.90;99.90;;;;;;4970001;28;20198;-75
2023/10/13 07:58:05;;;;;;;4.97;3.60;;;17.90;99.90;;;;;;4976070;28;20217;-75
2023/10/13 08:00:46;;;;;;;7.38;3.83;;;17.80;99.90;;;;;;4961815;28;20234;-74
2023/10/13 08:08:26;;;;;;;6.38;4.20;;;17.70;99.90;;;;;;4976867;28;20249;-75
2023/10/13 08:11:00;;;;;;;5.22;3.35;;;17.70;99.90;;;;;;4978369;28;20287;-75
2023/10/13 08:13:26;;;;;;;7.72;3.70;;;17.70;99.90;;;;;;4973083;28;20633;-75
2023/10/13 08:15:53;;;;;;;4.75;3.28;;;17.70;99.90;;;;;;4974160;28;20310;-75
2023/10/13 08:18:32;;;;;;;5.43;3.42;;;17.70;99.90;;;;;;4974359;28;20181;-75
2023/10/13 08:21:05;;;;;;;6.07;3.65;;;17.80;99.90;;;;;;4976030;28;20198;-75
2023/10/13 08:23:58;;;;;;;6.82;3.55;;;17.90;99.90;;;;;;4971116;28;20233;-75
2023/10/13 08:26:38;;;;;;;5.15;3.08;;;18.00;99.90;;;;;;4974925;28;20206;-75
2023/10/13 08:39:58;;;;;;;4.38;2.75;;;18.60;99.90;;;;;;4974271;28;20218;-76
2023/10/13 08:42:40;;;;;;;5.53;3.40;;;18.50;99.90;;;;;;4979655;28;20205;-75
2023/10/13 09:01:36;;;;;;;5.25;3.83;;;17.90;99.90;;;;;;4974333;28;20213;-75
2023/10/13 09:09:42;;;;;;;5.57;3.42;;;18.00;99.90;;;;;;4963562;28;20222;-76
2023/10/13 09:12:20;;;;;;;5.55;3.60;;;18.00;99.90;;;;;;4977339;28;20278;-76
2023/10/13 09:14:57;;;;;;;4.30;3.25;;;18.10;99.90;;;;;;4976759;28;20182;-75
2023/10/13 09:20:11;;;;;;;5.28;3.75;;;18.20;99.90;;;;;;4977298;28;20747;-75
2023/10/13 09:22:37;;;;;;;6.20;3.72;;;18.20;99.90;;;;;;4976547;28;20246;-75
2023/10/13 09:25:06;;;;;;;7.32;3.38;;;18.20;99.90;;;;;;4975227;28;20210;-75
2023/10/13 09:27:33;;;;;;;8.55;5.00;;;18.20;99.90;;;;;;4972806;28;20883;-75
2023/10/13 09:30:08;;;;;;;5.97;3.35;;;18.10;99.90;;;;;;4972169;28;20210;-75
2023/10/13 09:32:45;;;;;;;5.90;3.50;;;18.10;99.90;;;;;;4973833;28;20689;-76
2023/10/13 09:35:27;;;;;;;5.82;3.33;;;18.20;99.90;;;;;;4973120;28;20262;-75
2023/10/13 09:37:56;;;;;;;6.97;4.55;;;18.20;99.90;;;;;;4971662;28;20208;-75
2023/10/13 09:40:28;;;;;;;4.57;3.58;;;18.30;99.90;;;;;;4973019;28;20216;-74
2023/10/13 09:42:59;;;;;;;5.75;3.65;;;18.30;99.90;;;;;;4971059;28;20233;-73
2023/10/13 09:45:29;;;;;;;6.18;3.88;;;18.30;99.90;;;;;;4971691;28;20270;-74
2023/10/13 09:48:06;;;;;;;5.30;3.35;;;18.30;99.90;;;;;;4969975;28;20202;-74
2023/10/13 09:50:37;;;;;;;7.82;4.00;;;18.10;99.90;;;;;;4969270;28;20201;-76
2023/10/13 09:53:08;;;;;;;10.15;5.90;;;18.00;99.90;;;;;;4974330;28;20214;-75
2023/10/13 09:55:40;;;;;;;8.80;4.70;;;18.00;99.90;;;;;;4978625;28;20267;-76
2023/10/13 09:58:13;;;;;;;7.22;3.72;;;18.00;99.90;;;;;;4977360;28;20229;-77
2023/10/13 10:00:57;;;;;;;4.63;3.33;;;17.90;99.90;;;;;;4976574;28;20263;-76
2023/10/13 10:03:30;;;;;;;6.72;3.70;;;17.90;99.90;;;;;;4977886;28;20186;-77
2023/10/13 10:06:03;;;;;;;7.38;3.88;;;17.90;99.90;;;;;;4974720;28;20175;-76
2023/10/13 10:08:33;;;;;;;7.07;3.78;;;18.00;99.90;;;;;;4970347;28;20242;-74
2023/10/13 10:11:15;;;;;;;8.07;3.55;;;18.10;99.90;;;;;;4971479;28;20202;-76
2023/10/13 10:13:57;;;;;;;7.55;3.92;;;18.10;99.90;;;;;;4971923;28;20206;-77
2023/10/13 10:16:46;;;;;;;10.90;3.97;;;18.20;99.90;;;;;;4971194;28;20295;-76
2023/10/13 10:19:12;;;;;;;8.93;4.50;;;18.10;99.90;;;;;;4968731;28;20206;-77
2023/10/13 10:21:38;;;;;;;5.45;3.65;;;18.20;99.90;;;;;;4970882;28;20213;-76
2023/10/13 10:24:29;;;;;;;4.68;3.20;;;18.20;99.90;;;;;;4979643;28;20175;-76
2023/10/13 10:26:56;;;;;;;5.18;3.75;;;18.20;99.90;;;;;;4980521;28;20548;-76
2023/10/13 10:29:22;;;;;;;6.55;3.30;;;18.20;99.90;;;;;;4979015;28;20239;-77
2023/10/13 10:31:49;;;;;;;5.68;3.67;;;18.20;99.90;;;;;;4977515;28;20205;-77
2023/10/13 10:34:18;;;;;;;5.22;3.33;;;18.30;99.90;;;;;;4976835;28;20245;-76
2023/10/13 10:36:47;;;;;;;7.20;3.20;;;18.30;99.90;;;;;;4968616;28;20730;-77
2023/10/13 10:39:14;;;;;;;7.38;3.40;;;18.30;99.90;;;;;;4963556;28;20179;-76
2023/10/13 10:44:16;;;;;;;5.93;3.55;;;18.30;99.90;;;;;;4971654;28;20198;-76
2023/10/13 10:46:51;;;;;;;7.05;3.88;;;18.30;99.90;;;;;;4972389;28;20210;-76
2023/10/13 10:49:27;;;;;;;6.45;4.47;;;18.20;99.90;;;;;;4970739;28;20214;-76
2023/10/13 10:52:00;;;;;;;8.55;4.07;;;18.20;99.90;;;;;;4973097;28;20296;-76
2023/10/13 10:54:30;;;;;;;8.35;5.07;;;18.20;99.90;;;;;;4971264;28;20327;-76
2023/10/13 10:56:59;;;;;;;6.60;5.13;;;18.20;99.90;;;;;;4972526;28;20229;-77
2023/10/13 10:59:29;;;;;;;6.10;3.13;;;18.20;99.90;;;;;;4973109;28;20289;-76
2023/10/13 11:01:54;;;;;;;5.13;3.47;;;18.20;99.90;;;;;;4978492;28;20244;-76
2023/10/13 11:06:56;;;;;;;7.95;3.42;;;18.30;99.90;;;;;;4963385;28;20208;-76
2023/10/13 11:09:36;;;;;;;5.95;3.63;;;18.30;99.90;;;;;;4977739;28;20178;-76
2023/10/13 11:12:23;;;;;;;5.13;3.45;;;18.30;99.90;;;;;;4986823;28;20210;-75
2023/10/13 11:15:00;;;;;;;9.20;3.78;;;18.30;99.90;;;;;;4975928;28;20226;-75
2023/10/13 11:17:26;;;;;;;6.93;3.50;;;18.40;99.90;;;;;;4977288;28;20720;-74
2023/10/13 11:19:52;;;;;;;6.53;3.90;;;18.50;99.90;;;;;;4978290;28;20214;-75
2023/10/13 11:22:29;;;;;;;6.25;3.75;;;18.50;99.90;;;;;;4977100;28;20293;-74
2023/10/13 11:25:14;;;;;;;5.20;3.78;;;18.60;99.90;;;;;;4973916;28;20237;-74
2023/10/13 11:30:19;;;;;;;6.40;3.72;;;18.70;99.90;;;;;;4970693;28;20241;-74
2023/10/13 11:32:46;;;;;;;4.90;3.30;;;18.70;99.90;;;;;;4970923;28;20190;-75
2023/10/13 11:35:20;;;;;;;5.03;3.53;;;18.80;99.90;;;;;;4972355;28;20216;-74
2023/10/13 11:37:56;;;;;;;5.90;4.03;;;18.80;99.90;;;;;;4978949;28;20252;-75
2023/10/13 11:40:43;;;;;;;5.35;3.47;;;18.70;99.90;;;;;;4980586;28;20212;-75
2023/10/13 11:43:15;;;;;;;4.65;3.35;;;18.70;99.90;;;;;;4976998;28;20230;-77
2023/10/13 11:46:12;;;;;;;6.45;3.80;;;18.70;99.90;;;;;;4982415;28;20256;-75
2023/10/13 11:48:41;;;;;;;5.68;3.50;;;18.70;99.90;;;;;;4981413;28;20224;-75
2023/10/13 11:51:17;;;;;;;5.18;3.03;;;18.70;99.90;;;;;;4965785;28;20226;-76
2023/10/13 11:53:53;;;;;;;6.30;3.10;;;18.80;99.90;;;;;;4970641;28;20654;-74
2023/10/13 11:56:21;;;;;;;6.07;3.53;;;18.90;99.90;;;;;;4974687;28;20214;-74
2023/10/13 11:58:48;;;;;;;5.70;3.30;;;18.90;99.90;;;;;;4975978;28;20203;-75
2023/10/13 12:11:41;;;;;;;7.13;3.58;;;19.30;99.90;;;;;;4972857;28;20204;-75
2023/10/13 12:14:27;;;;;;;4.72;3.30;;;19.30;99.90;;;;;;4978116;28;20205;-75
2023/10/13 12:16:53;;;;;;;5.03;3.30;;;19.30;99.90;;;;;;4981230;28;20705;-74
2023/10/13 12:19:23;;;;;;;5.32;3.40;;;19.30;99.90;;;;;;4977221;28;20206;-76
2023/10/13 12:21:54;;;;;;;7.85;3.75;;;19.40;99.90;;;;;;4980801;28;20260;-76
2023/10/13 12:24:39;;;;;;;7.20;3.80;;;19.40;99.90;;;;;;4977132;28;20209;-75
2023/10/13 12:27:19;;;;;;;6.70;3.20;;;19.50;99.90;;;;;;4965732;28;20217;-76
2023/10/13 12:29:48;;;;;;;7.38;3.53;;;19.60;99.90;;;;;;4973403;28;20216;-77
2023/10/13 12:32:20;;;;;;;6.03;3.53;;;19.60;99.90;;;;;;4974969;28;20210;-76
2023/10/13 12:34:57;;;;;;;3.63;3.20;;;19.70;99.90;;;;;;4973656;28;20611;-76
2023/10/13 12:51:20;;;;;;;6.70;2.65;;;19.90;99.90;;;;;;4981190;28;20280;-76
2023/10/13 12:53:50;;;;;;;7.05;3.22;;;20.00;99.90;;;;;;4981214;28;20543;-76
2023/10/13 12:56:16;;;;;;;6.78;4.00;;;20.00;99.90;;;;;;4974780;28;20264;-76
2023/10/13 12:58:51;;;;;;;6.38;3.22;;;20.00;99.90;;;;;;4981285;28;20615;-76
2023/10/13 13:01:20;;;;;;;6.43;3.25;;;20.00;99.90;;;;;;4975446;28;20224;-76
2023/10/13 13:03:46;;;;;;;8.15;3.45;;;20.10;99.90;;;;;;4979351;28;20259;-76
2023/10/13 13:06:24;;;;;;;6.57;3.05;;;20.20;99.90;;;;;;4963125;28;20649;-76
2023/10/13 13:09:00;;;;;;;5.22;2.80;;;20.20;99.90;;;;;;4976851;28;20193;-76
2023/10/13 13:11:28;;;;;;;11.50;3.63;;;20.30;99.90;;;;;;4973524;28;20202;-76
2023/10/13 13:13:54;;;;;;;4.18;2.95;;;20.40;99.90;;;;;;4974788;28;20203;-75
2023/10/13 13:16:23;;;;;;;3.88;2.95;;;20.50;99.90;;;;;;4972438;28;20743;-76
2023/10/13 13:18:54;;;;;;;3.60;2.85;;;20.60;99.90;;;;;;4972791;28;20265;-76
2023/10/13 13:21:22;;;;;;;6.50;3.70;;;20.70;99.90;;;;;;4972077;28;20244;-76
2023/10/13 13:23:49;;;;;;;5.95;3.38;;;20.80;99.90;;;;;;4967115;28;20294;-76
2023/10/13 13:26:15;;;;;;;6.28;3.45;;;20.80;99.90;;;;;;4971051;28;20672;-76
2023/10/13 13:28:50;;;;;;;8.52;3.00;;;20.90;99.90;;;;;;4970120;28;20581;-75
2023/10/13 13:31:15;;;;;;;5.55;2.80;;;21.00;99.90;;;;;;4977861;28;20221;-74
2023/10/13 13:33:44;;;;;;;4.43;3.33;;;20.90;99.90;;;;;;4978097;28;20214;-75
2023/10/13 13:36:14;;;;;;;5.90;2.63;;;20.90;99.90;;;;;;4972844;28;20642;-75
2023/10/13 13:38:40;;;;;;;6.18;2.88;;;20.90;99.90;;;;;;4977518;28;20174;-77
2023/10/13 13:41:18;;;;;;;7.85;2.90;;;21.00;99.90;;;;;;4976602;28;20198;-75
2023/10/13 13:43:54;;;;;;;4.20;3.10;;;21.00;99.90;;;;;;4983740;28;20575;-75
2023/10/13 13:46:24;;;;;;;5.18;2.90;;;21.10;99.90;;;;;;4974240;28;20201;-74
2023/10/13 13:48:51;;;;;;;5.57;2.92;;;21.10;99.90;;;;;;4967606;28;20209;-76
2023/10/13 13:51:26;;;;;;;3.92;2.63;;;21.10;99.90;;;;;;4970524;28;20205;-76
2023/10/13 13:53:52;;;;;;;4.57;2.95;;;21.10;99.90;;;;;;4971022;28;20227;-75
2023/10/13 13:56:18;;;;;;;5.65;2.97;;;21.20;99.90;;;;;;4972614;28;20203;-75
2023/10/13 13:58:49;;;;;;;7.30;3.88;;;21.20;99.90;;;;;;4970081;28;20590;-75
2023/10/13 14:01:18;;;;;;;5.45;3.50;;;21.20;99.90;;;;;;4970501;28;20349;-75
2023/10/13 14:03:47;;;;;;;7.82;4.15;;;21.30;99.90;;;;;;4975871;28;20214;-75
2023/10/13 14:06:34;;;;;;;5.32;2.67;;;21.30;99.90;;;;;;4985952;28;20226;-76
2023/10/13 14:09:02;;;;;;;8.30;2.92;;;21.30;99.90;;;;;;4971316;28;20928;-75
2023/10/13 14:14:33;;;;;;;5.07;3.08;;;21.40;99.90;;;;;;4977039;28;20288;-76
2023/10/13 14:17:08;;;;;;;7.40;3.55;;;21.50;99.90;;;;;;4968204;28;20217;-75
2023/10/13 14:19:40;;;;;;;5.20;3.08;;;21.50;99.90;;;;;;4970387;28;20209;-75
2023/10/13 14:22:11;;;;;;;5.22;3.13;;;21.50;99.90;;;;;;4973073;28;20229;-75
2023/10/13 14:24:43;;;;;;;4.57;3.15;;;21.40;99.90;;;;;;4972368;28;20282;-75
2023/10/13 14:27:15;;;;;;;4.35;2.55;;;21.40;99.90;;;;;;4968338;28;20229;-76
2023/10/13 14:29:42;;;;;;;4.65;2.70;;;21.40;99.90;;;;;;4975014;28;20625;-77
2023/10/13 14:32:13;;;;;;;5.40;2.85;;;21.30;99.90;;;;;;4971791;28;20241;-75
2023/10/13 14:34:44;;;;;;;8.98;3.63;;;21.40;99.90;;;;;;4967698;28;20231;-76
2023/10/13 14:37:13;;;;;;;7.68;3.17;;;21.30;99.90;;;;;;4965200;28;20198;-76
2023/10/13 14:39:41;;;;;;;6.20;3.47;;;21.30;99.90;;;;;;4969794;28;20856;-75
2023/10/13 14:42:07;;;;;;;7.50;3.05;;;21.40;99.90;;;;;;4979595;28;20236;-75
2023/10/13 14:44:34;;;;;;;9.48;3.72;;;21.40;99.90;;;;;;4977071;28;20175;-75
2023/10/13 14:47:01;;;;;;;7.15;3.13;;;21.40;99.90;;;;;;4978836;28;20213;-75
2023/10/13 14:49:27;;;;;;;4.43;2.33;;;21.30;99.90;;;;;;4976915;28;20203;-76
2023/10/13 14:51:55;;;;;;;5.45;3.33;;;21.30;99.90;;;;;;4978474;28;20221;-76
2023/10/13 14:54:32;;;;;;;4.82;3.70;;;21.30;99.90;;;;;;4978066;28;20174;-75
2023/10/13 14:56:59;;;;;;;8.73;3.03;;;21.20;99.90;;;;;;4977533;28;20177;-75
2023/10/13 14:59:25;;;;;;;8.57;3.70;;;21.30;99.90;;;;;;4978489;28;20198;-76
2023/10/13 15:01:50;;;;;;;5.72;3.17;;;21.20;99.90;;;;;;4975708;28;20346;-76
2023/10/13 15:04:16;;;;;;;9.05;3.38;;;21.20;99.90;;;;;;4978031;28;20672;-76
2023/10/13 15:06:41;;;;;;;8.32;3.50;;;21.20;99.90;;;;;;4970005;28;20221;-76
2023/10/13 15:09:11;;;;;;;5.47;3.00;;;21.20;99.90;;;;;;4967315;28;20243;-76
2023/10/13 15:11:36;;;;;;;5.18;3.20;;;21.20;99.90;;;;;;4967783;28;20202;-75
2023/10/13 15:14:06;;;;;;;7.55;4.22;;;21.20;99.90;;;;;;4972299;28;20198;-76
2023/10/13 15:16:33;;;;;;;7.20;3.03;;;21.10;99.90;;;;;;4970394;28;20249;-76
2023/10/13 15:18:59;;;;;;;5.95;2.95;;;21.10;99.90;;;;;;4985115;28;20206;-76
2023/10/13 15:21:35;;;;;;;7.85;3.08;;;21.10;99.90;;;;;;4975980;28;20225;-76
2023/10/13 15:24:13;;;;;;;4.72;2.88;;;21.10;99.90;;;;;;4975356;28;20182;-76
2023/10/13 15:26:48;;;;;;;4.35;3.15;;;21.00;99.90;;;;;;4975747;28;21950;-76
2023/10/13 15:29:16;;;;;;;4.45;2.83;;;21.00;99.90;;;;;;4966066;28;20233;-77
2023/10/13 15:31:53;;;;;;;5.65;3.00;;;21.00;99.90;;;;;;4975587;28;20218;-77
2023/10/13 15:34:19;;;;;;;6.05;3.03;;;20.90;99.90;;;;;;4986926;28;20206;-76
2023/10/13 15:36:45;;;;;;;8.00;3.40;;;21.00;99.90;;;;;;4976539;28;20225;-76
2023/10/13 15:39:15;;;;;;;8.60;3.10;;;20.90;99.90;;;;;;4974950;28;20178;-76
2023/10/13 15:41:41;;;;;;;6.38;3.65;;;20.90;99.90;;;;;;4977993;28;20241;-75
2023/10/13 15:44:12;;;;;;;5.95;3.10;;;20.90;99.90;;;;;;4976672;28;20210;-74
2023/10/13 15:46:39;;;;;;;6.10;3.33;;;20.90;99.90;;;;;;4971823;28;20213;-76
2023/10/13 15:49:07;;;;;;;7.20;2.95;;;20.80;99.90;;;;;;4976687;28;20210;-76
2023/10/13 15:51:36;;;;;;;5.50;3.50;;;20.80;99.90;;;;;;4974346;28;20245;-76
2023/10/13 15:54:03;;;;;;;7.30;3.55;;;20.80;99.90;;;;;;4975980;28;20181;-75
2023/10/13 15:56:32;;;;;;;9.93;4.43;;;20.80;99.90;;;;;;4980158;28;20226;-77
2023/10/13 15:59:01;;;;;;;6.65;3.60;;;20.70;99.90;;;;;;4966878;28;20793;-75
2023/10/13 16:01:28;;;;;;;6.30;3.45;;;20.70;99.90;;;;;;4978923;28;20684;-75
2023/10/13 16:03:53;;;;;;;6.38;3.17;;;20.60;99.90;;;;;;4979011;28;20640;-73
2023/10/13 16:06:19;;;;;;;9.93;4.10;;;20.60;99.90;;;;;;4976609;28;20208;-75
2023/10/13 16:08:45;;;;;;;7.40;4.47;;;20.70;99.90;;;;;;4978357;28;20285;-75
2023/10/13 16:11:19;;;;;;;6.80;3.65;;;20.70;99.90;;;;;;4976552;28;20205;-75
2023/10/13 16:13:45;;;;;;;10.05;3.45;;;20.60;99.90;;;;;;4958982;28;20234;-75
2023/10/13 16:16:24;;;;;;;5.30;3.13;;;20.60;99.90;;;;;;4972479;28;20199;-75
2023/10/13 16:18:51;;;;;;;7.03;2.90;;;20.60;99.90;;;;;;4972895;28;20202;-75
2023/10/13 16:21:18;;;;;;;6.07;3.25;;;20.60;99.90;;;;;;4973415;28;20186;-75
2023/10/13 16:23:47;;;;;;;3.95;2.75;;;20.60;99.90;;;;;;4974393;28;20873;-75
2023/10/13 16:26:14;;;;;;;7.18;3.28;;;20.60;99.90;;;;;;4970365;28;20270;-75
2023/10/13 16:28:39;;;;;;;7.90;3.22;;;20.60;99.90;;;;;;4972293;28;20214;-76
2023/10/13 16:31:07;;;;;;;7.80;3.30;;;20.60;99.90;;;;;;4976532;28;20217;-75
2023/10/13 16:33:35;;;;;;;6.72;3.45;;;20.50;99.90;;;;;;4979259;28;20210;-75
2023/10/13 16:36:10;;;;;;;5.57;2.80;;;20.60;99.90;;;;;;4982849;28;20532;-75
2023/10/13 16:38:36;;;;;;;6.38;3.80;;;20.50;99.90;;;;;;4976625;28;20287;-76
2023/10/13 16:41:06;;;;;;;4.30;3.00;;;20.50;99.90;;;;;;4979574;28;20210;-75
2023/10/13 16:43:35;;;;;;;6.45;3.25;;;20.50;99.90;;;;;;4970676;28;20224;-76
2023/10/13 16:46:08;;;;;;;7.93;3.00;;;20.50;99.90;;;;;;4977093;28;20206;-77
2023/10/13 16:48:34;;;;;;;7.20;3.40;;;20.50;99.90;;;;;;4973818;28;20225;-76
2023/10/13 16:51:00;;;;;;;6.93;3.28;;;20.40;99.90;;;;;;4977418;28;20202;-75